Time;durP1;ratioP1;P1;durP2;ratioP2;P2;SDS_P1;SDS_P2;PMS_P1;PMS_P2;Temp;Humidity;BMP_temperature;BMP_pressure;BME280_temperature;BME280_humidity;BME280_pressure;Samples;Min_cycle;Max_cycle;Signal;HPM_P1;HPM_P2
2022/08/01 00:00:52;;;;;;;;;;;;;;;23.90;100.00;96267.81;5051416;28;19979;-49
2022/08/01 00:03:22;;;;;;;;;;;;;;;23.84;100.00;96266.03;5049036;28;19959;-48
2022/08/01 00:05:50;;;;;;;;;;;;;;;23.93;100.00;96262.75;5048581;28;19952;-52
2022/08/01 00:08:18;;;;;;;;;;;;;;;23.82;100.00;96265.47;5051537;28;19963;-49
2022/08/01 00:10:46;;;;;;;;;;;;;;;23.71;100.00;96263.56;5051157;28;19960;-50
2022/08/01 00:13:14;;;;;;;;;;;;;;;23.44;100.00;96264.78;5044197;28;20695;-51
2022/08/01 00:15:42;;;;;;;;;;;;;;;23.15;100.00;96265.63;5051138;28;19956;-49
2022/08/01 00:18:22;;;;;;;;;;;;;;;23.26;100.00;96264.00;5051369;28;20355;-56
2022/08/01 00:20:50;;;;;;;;;;;;;;;23.27;100.00;96269.19;5049709;28;19967;-48
2022/08/01 00:23:19;;;;;;;;;;;;;;;23.22;100.00;96266.34;5041797;28;19948;-48
2022/08/01 00:25:47;;;;;;;;;;;;;;;23.40;100.00;96260.91;5051036;28;19959;-54
2022/08/01 00:28:16;;;;;;;;;;;;;;;23.49;100.00;96255.19;5049540;28;20378;-49
2022/08/01 00:30:44;;;;;;;;;;;;;;;23.33;100.00;96262.03;5048764;28;20364;-46
2022/08/01 00:33:12;;;;;;;;;;;;;;;23.21;100.00;96260.16;5052527;28;19956;-49
2022/08/01 00:35:41;;;;;;;;;;;;;;;23.15;100.00;96262.94;5053760;28;19956;-52
2022/08/01 00:38:10;;;;;;;;;;;;;;;23.33;100.00;96264.72;5050142;28;19976;-54
2022/08/01 00:40:38;;;;;;;;;;;;;;;23.10;100.00;96269.00;5050167;28;19956;-48
2022/08/01 00:43:06;;;;;;;;;;;;;;;23.06;100.00;96269.69;5050720;28;20559;-55
2022/08/01 00:45:35;;;;;;;;;;;;;;;23.02;100.00;96272.03;5043587;28;19963;-56
2022/08/01 00:48:03;;;;;;;;;;;;;;;22.88;100.00;96263.28;5050870;28;19960;-47
2022/08/01 00:50:31;;;;;;;;;;;;;;;22.89;100.00;96266.78;5048034;28;19951;-50
2022/08/01 00:53:01;;;;;;;;;;;;;;;22.76;100.00;96259.69;5048423;28;19963;-47
2022/08/01 00:55:30;;;;;;;;;;;;;;;22.67;100.00;96259.19;5042789;28;19933;-57
2022/08/01 00:57:58;;;;;;;;;;;;;;;22.55;100.00;96266.38;5050239;28;20031;-55
2022/08/01 01:00:33;;;;;;;;;;;;;;;22.65;100.00;96258.59;5050386;28;19952;-53
2022/08/01 01:03:20;;;;;;;;;;;;;;;22.31;100.00;96260.03;5049735;28;19967;-50
2022/08/01 01:06:06;;;;;;;;;;;;;;;22.32;100.00;96266.22;5050593;28;20358;-53
2022/08/01 01:08:39;;;;;;;;;;;;;;;22.30;100.00;96260.22;5050747;28;20395;-56
2022/08/01 01:11:10;;;;;;;;;;;;;;;22.25;100.00;96266.28;5048270;28;19983;-53
2022/08/01 01:13:39;;;;;;;;;;;;;;;22.52;100.00;96264.94;5048994;28;20351;-49
2022/08/01 01:16:18;;;;;;;;;;;;;;;22.48;100.00;96268.31;5049615;28;19956;-57
2022/08/01 01:18:47;;;;;;;;;;;;;;;22.64;100.00;96264.19;5050587;28;19955;-50
2022/08/01 01:21:26;;;;;;;;;;;;;;;22.45;100.00;96266.91;5049830;28;20431;-50
2022/08/01 01:23:55;;;;;;;;;;;;;;;22.55;100.00;96271.75;5050457;28;19972;-57
2022/08/01 01:26:29;;;;;;;;;;;;;;;22.71;100.00;96273.00;5047460;28;19959;-51
2022/08/01 01:29:06;;;;;;;;;;;;;;;22.65;100.00;96276.59;5045546;28;19959;-50
2022/08/01 01:31:36;;;;;;;;;;;;;;;22.61;100.00;96278.06;5049466;28;19971;-51
2022/08/01 01:34:04;;;;;;;;;;;;;;;22.45;100.00;96274.94;5039553;28;19968;-54
2022/08/01 01:36:33;;;;;;;;;;;;;;;22.56;100.00;96267.19;5043925;28;19959;-60
2022/08/01 01:39:01;;;;;;;;;;;;;;;22.63;100.00;96273.31;5046942;28;19956;-56
2022/08/01 01:41:29;;;;;;;;;;;;;;;22.01;100.00;96270.63;5046655;28;20351;-53
2022/08/01 01:43:57;;;;;;;;;;;;;;;22.31;100.00;96269.97;5045005;28;20560;-51
2022/08/01 01:46:27;;;;;;;;;;;;;;;22.13;100.00;96278.78;5046250;28;20403;-51
2022/08/01 01:48:56;;;;;;;;;;;;;;;22.04;100.00;96276.38;5047772;28;19966;-47
2022/08/01 01:51:25;;;;;;;;;;;;;;;22.21;100.00;96273.16;5046570;28;20387;-53
2022/08/01 01:53:53;;;;;;;;;;;;;;;22.26;100.00;96265.22;5046946;28;20335;-51
2022/08/01 01:56:22;;;;;;;;;;;;;;;22.28;100.00;96266.66;5046522;28;19952;-50
2022/08/01 01:58:50;;;;;;;;;;;;;;;21.91;100.00;96273.00;5047170;28;19956;-55
2022/08/01 02:01:19;;;;;;;;;;;;;;;22.15;100.00;96266.78;5047568;28;19960;-52
2022/08/01 02:04:08;;;;;;;;;;;;;;;22.21;100.00;96270.47;5039847;28;19948;-50
2022/08/01 02:06:37;;;;;;;;;;;;;;;21.98;100.00;96277.25;5044680;28;19975;-62
2022/08/01 02:09:05;;;;;;;;;;;;;;;22.09;100.00;96272.19;5044462;28;19948;-48
2022/08/01 02:11:33;;;;;;;;;;;;;;;22.16;100.00;96278.34;5047275;28;19955;-55
2022/08/01 02:14:02;;;;;;;;;;;;;;;22.24;100.00;96288.81;5048855;28;19963;-47
2022/08/01 02:16:30;;;;;;;;;;;;;;;22.20;100.00;96287.63;5047505;28;19971;-51
2022/08/01 02:18:59;;;;;;;;;;;;;;;22.40;100.00;96284.72;5047910;28;19956;-52
2022/08/01 02:21:29;;;;;;;;;;;;;;;22.45;100.00;96288.38;5046082;28;21446;-55
2022/08/01 02:23:59;;;;;;;;;;;;;;;22.17;100.00;96288.91;5040991;28;19997;-47
2022/08/01 02:26:32;;;;;;;;;;;;;;;22.42;100.00;96285.31;5047096;28;19963;-54
2022/08/01 02:29:02;;;;;;;;;;;;;;;22.60;100.00;96292.56;5037076;28;19960;-61
2022/08/01 02:31:30;;;;;;;;;;;;;;;22.43;100.00;96293.16;5048456;28;19962;-54
2022/08/01 02:34:01;;;;;;;;;;;;;;;22.73;100.00;96289.72;5049681;28;19960;-54
2022/08/01 02:36:31;;;;;;;;;;;;;;;22.56;100.00;96289.50;5045328;28;19975;-55
2022/08/01 02:39:01;;;;;;;;;;;;;;;22.82;100.00;96285.69;5044471;28;19956;-55
2022/08/01 02:41:29;;;;;;;;;;;;;;;22.85;100.00;96287.94;5048421;28;19974;-53
2022/08/01 02:43:58;;;;;;;;;;;;;;;22.60;100.00;96284.50;5046610;28;20020;-51
2022/08/01 02:46:29;;;;;;;;;;;;;;;22.75;100.00;96293.03;5030904;28;19964;-53
2022/08/01 02:48:57;;;;;;;;;;;;;;;22.39;100.00;96293.84;5034673;28;19956;-52
2022/08/01 02:51:25;;;;;;;;;;;;;;;22.40;100.00;96290.09;5047531;28;19963;-58
2022/08/01 02:53:55;;;;;;;;;;;;;;;22.25;100.00;96288.59;5047472;28;20002;-52
2022/08/01 02:56:24;;;;;;;;;;;;;;;21.91;100.00;96306.03;5043111;28;19979;-49
2022/08/01 02:58:52;;;;;;;;;;;;;;;21.74;100.00;96297.69;5048232;28;19975;-49
2022/08/01 03:01:20;;;;;;;;;;;;;;;21.83;100.00;96297.44;5050094;28;19967;-51
2022/08/01 03:03:48;;;;;;;;;;;;;;;21.85;100.00;96303.41;5048949;28;19936;-50
2022/08/01 03:06:17;;;;;;;;;;;;;;;21.66;100.00;96303.34;5050665;28;19956;-46
2022/08/01 03:08:45;;;;;;;;;;;;;;;21.66;100.00;96302.53;5050408;28;19956;-48
2022/08/01 03:11:14;;;;;;;;;;;;;;;21.77;100.00;96297.25;5049456;28;19956;-53
2022/08/01 03:13:43;;;;;;;;;;;;;;;21.96;100.00;96295.47;5052401;28;19968;-54
2022/08/01 03:16:11;;;;;;;;;;;;;;;22.05;100.00;96304.88;5048852;28;20425;-55
2022/08/01 03:18:39;;;;;;;;;;;;;;;22.14;100.00;96310.78;5050414;28;20384;-52
2022/08/01 03:21:08;;;;;;;;;;;;;;;22.21;100.00;96300.84;5051178;28;19956;-49
2022/08/01 03:23:36;;;;;;;;;;;;;;;21.73;100.00;96314.03;5049284;28;19967;-50
2022/08/01 03:26:05;;;;;;;;;;;;;;;21.56;100.00;96305.69;5054525;28;19972;-47
2022/08/01 03:28:34;;;;;;;;;;;;;;;21.49;100.00;96304.91;5047928;28;19971;-48
2022/08/01 03:31:02;;;;;;;;;;;;;;;21.84;100.00;96304.44;5046759;28;20359;-57
2022/08/01 03:33:30;;;;;;;;;;;;;;;21.47;100.00;96304.31;5046609;28;20397;-52
2022/08/01 03:35:58;;;;;;;;;;;;;;;21.48;100.00;96304.09;5046152;28;19983;-49
2022/08/01 03:38:27;;;;;;;;;;;;;;;21.56;100.00;96311.88;5046133;28;20050;-48
2022/08/01 03:40:56;;;;;;;;;;;;;;;21.41;100.00;96315.94;5045171;28;19964;-54
2022/08/01 03:43:28;;;;;;;;;;;;;;;21.31;100.00;96319.03;5043494;28;19967;-51
2022/08/01 03:45:57;;;;;;;;;;;;;;;21.54;100.00;96315.81;5050375;28;19964;-49
2022/08/01 03:48:29;;;;;;;;;;;;;;;21.55;100.00;96320.97;5051595;28;20379;-48
2022/08/01 03:50:57;;;;;;;;;;;;;;;21.44;100.00;96323.50;5051670;28;19956;-54
2022/08/01 03:53:27;;;;;;;;;;;;;;;21.62;100.00;96323.63;5044607;28;19967;-52
2022/08/01 03:55:55;;;;;;;;;;;;;;;21.58;100.00;96322.41;5051697;28;20355;-49
2022/08/01 03:58:23;;;;;;;;;;;;;;;21.74;100.00;96327.22;5048984;28;19967;-50
2022/08/01 04:00:51;;;;;;;;;;;;;;;21.74;100.00;96326.41;5046180;28;19975;-47
2022/08/01 04:03:20;;;;;;;;;;;;;;;21.97;100.00;96333.88;5039384;28;19967;-48
2022/08/01 04:05:48;;;;;;;;;;;;;;;22.00;100.00;96330.75;5051799;28;19952;-50
2022/08/01 04:08:17;;;;;;;;;;;;;;;22.01;100.00;96332.38;5051602;28;19959;-52
2022/08/01 04:10:45;;;;;;;;;;;;;;;22.28;100.00;96330.31;5051464;28;20012;-52
2022/08/01 04:13:17;;;;;;;;;;;;;;;22.16;100.00;96332.91;5050614;28;19964;-49
2022/08/01 04:15:45;;;;;;;;;;;;;;;22.60;100.00;96330.19;5051756;28;19983;-51
2022/08/01 04:18:13;;;;;;;;;;;;;;;22.09;100.00;96334.78;5051463;28;19962;-53
2022/08/01 04:20:42;;;;;;;;;;;;;;;22.40;100.00;96346.53;5051422;28;19959;-49
2022/08/01 04:23:11;;;;;;;;;;;;;;;22.29;100.00;96350.75;5050710;28;19974;-52
2022/08/01 04:25:40;;;;;;;;;;;;;;;22.63;100.00;96349.38;5051082;28;19963;-51
2022/08/01 04:28:10;;;;;;;;;;;;;;;23.43;100.00;96356.50;5049306;28;20418;-51
2022/08/01 04:30:38;;;;;;;;;;;;;;;24.29;100.00;96348.97;5050657;28;19971;-46
2022/08/01 04:33:07;;;;;;;;;;;;;;;23.59;100.00;96360.44;5047601;28;19971;-49
2022/08/01 04:35:35;;;;;;;;;;;;;;;23.20;100.00;96360.75;5044534;28;19959;-45
2022/08/01 04:38:27;;;;;;;;;;;;;;;23.28;100.00;96359.63;5045770;28;19964;-51
2022/08/01 04:40:55;;;;;;;;;;;;;;;22.93;100.00;96364.81;5050922;28;19975;-49
2022/08/01 04:43:23;;;;;;;;;;;;;;;23.12;100.00;96366.41;5050852;28;19958;-47
2022/08/01 04:45:51;;;;;;;;;;;;;;;23.04;100.00;96374.81;5050155;28;19948;-49
2022/08/01 04:48:20;;;;;;;;;;;;;;;22.78;100.00;96369.69;5050021;28;20071;-48
2022/08/01 04:50:49;;;;;;;;;;;;;;;22.86;100.00;96367.53;5050315;28;19959;-48
2022/08/01 04:53:21;;;;;;;;;;;;;;;22.77;100.00;96373.44;5050427;28;19963;-54
2022/08/01 04:55:51;;;;;;;;;;;;;;;22.79;100.00;96371.38;5050880;28;20398;-52
2022/08/01 04:58:19;;;;;;;;;;;;;;;22.84;100.00;96371.50;5050276;28;19968;-49
2022/08/01 05:00:47;;;;;;;;;;;;;;;22.71;100.00;96375.13;5050090;28;19967;-47
2022/08/01 05:03:15;;;;;;;;;;;;;;;22.75;100.00;96363.75;5049806;28;19952;-46
2022/08/01 05:05:43;;;;;;;;;;;;;;;22.60;100.00;96376.72;5053225;28;19988;-50
2022/08/01 05:08:11;;;;;;;;;;;;;;;22.82;100.00;96378.97;5050912;28;19960;-47
2022/08/01 05:10:39;;;;;;;;;;;;;;;22.90;100.00;96373.28;5051014;28;19974;-51
2022/08/01 05:13:09;;;;;;;;;;;;;;;22.98;100.00;96383.78;5050256;28;19968;-48
2022/08/01 05:15:37;;;;;;;;;;;;;;;22.94;100.00;96380.72;5043991;28;19952;-50
2022/08/01 05:18:06;;;;;;;;;;;;;;;23.08;100.00;96389.44;5049963;28;20307;-46
2022/08/01 05:20:36;;;;;;;;;;;;;;;23.42;100.00;96384.47;5050640;28;19971;-53
2022/08/01 05:23:04;;;;;;;;;;;;;;;23.54;100.00;96384.53;5047740;28;19960;-52
2022/08/01 05:25:33;;;;;;;;;;;;;;;24.03;100.00;96390.69;5048384;28;19955;-49
2022/08/01 05:28:22;;;;;;;;;;;;;;;23.55;100.00;96391.56;5028461;28;19979;-55
2022/08/01 05:30:54;;;;;;;;;;;;;;;23.50;100.00;96399.47;5041098;28;19960;-51
2022/08/01 05:33:22;;;;;;;;;;;;;;;23.39;100.00;96404.59;5047589;28;19956;-51
2022/08/01 05:35:50;;;;;;;;;;;;;;;22.99;100.00;96396.19;5050163;28;20421;-48
2022/08/01 05:38:18;;;;;;;;;;;;;;;22.94;100.00;96404.09;5050042;28;19975;-54
2022/08/01 05:40:46;;;;;;;;;;;;;;;23.23;100.00;96407.91;5049345;28;19956;-53
2022/08/01 05:43:14;;;;;;;;;;;;;;;23.16;100.00;96412.56;5049708;28;19986;-51
2022/08/01 05:45:44;;;;;;;;;;;;;;;23.30;100.00;96411.34;5049921;28;19956;-52
2022/08/01 05:48:12;;;;;;;;;;;;;;;24.22;100.00;96421.03;5049694;28;19979;-55
2022/08/01 05:50:40;;;;;;;;;;;;;;;24.82;100.00;96413.59;5049720;28;19948;-47
2022/08/01 05:53:08;;;;;;;;;;;;;;;24.28;100.00;96412.84;5049125;28;19960;-54
2022/08/01 05:55:37;;;;;;;;;;;;;;;25.18;100.00;96409.00;5049963;28;20054;-53
2022/08/01 05:58:05;;;;;;;;;;;;;;;24.46;100.00;96414.66;5045198;28;19964;-57
2022/08/01 06:00:33;;;;;;;;;;;;;;;25.12;100.00;96418.06;5048221;28;19966;-52
2022/08/01 06:03:02;;;;;;;;;;;;;;;24.51;100.00;96413.97;5043024;28;19965;-47
2022/08/01 06:05:30;;;;;;;;;;;;;;;24.96;100.00;96416.06;5044895;28;19963;-49
2022/08/01 06:07:58;;;;;;;;;;;;;;;25.24;100.00;96415.34;5049821;28;20370;-51
2022/08/01 06:10:27;;;;;;;;;;;;;;;25.42;100.00;96417.03;5049121;28;19963;-51
2022/08/01 06:12:55;;;;;;;;;;;;;;;25.37;100.00;96412.38;5049075;28;19964;-46
2022/08/01 06:15:23;;;;;;;;;;;;;;;24.92;100.00;96423.00;5049347;28;19956;-46
2022/08/01 06:17:51;;;;;;;;;;;;;;;25.10;100.00;96429.06;5049390;28;19956;-49
2022/08/01 06:20:21;;;;;;;;;;;;;;;25.13;100.00;96429.69;5045825;28;19964;-54
2022/08/01 06:22:49;;;;;;;;;;;;;;;25.51;100.00;96424.53;5045014;28;19967;-48
2022/08/01 06:25:19;;;;;;;;;;;;;;;26.15;100.00;96426.25;5049620;28;19959;-50
2022/08/01 06:27:49;;;;;;;;;;;;;;;26.22;100.00;96424.19;5050133;28;19959;-49
2022/08/01 06:30:17;;;;;;;;;;;;;;;25.80;100.00;96443.47;5036318;28;20433;-52
2022/08/01 06:32:45;;;;;;;;;;;;;;;25.53;100.00;96432.38;5048549;28;19972;-54
2022/08/01 06:35:13;;;;;;;;;;;;;;;26.42;100.00;96434.53;5049297;28;19959;-47
2022/08/01 06:37:44;;;;;;;;;;;;;;;25.87;100.00;96430.63;5048729;28;19947;-51
2022/08/01 06:40:12;;;;;;;;;;;;;;;26.08;100.00;96425.59;5048642;28;19964;-49
2022/08/01 06:42:45;;;;;;;;;;;;;;;26.00;100.00;96432.22;5048597;28;19960;-47
2022/08/01 06:45:13;;;;;;;;;;;;;;;26.40;100.00;96431.28;5048953;28;19968;-57
2022/08/01 06:47:42;;;;;;;;;;;;;;;26.38;100.00;96436.91;5048963;28;19971;-52
2022/08/01 06:50:10;;;;;;;;;;;;;;;26.66;100.00;96427.09;5042314;28;19956;-46
2022/08/01 06:52:39;;;;;;;;;;;;;;;26.48;100.00;96430.91;5048809;28;20472;-53
2022/08/01 06:55:09;;;;;;;;;;;;;;;26.26;100.00;96434.31;5049226;28;19982;-54
2022/08/01 06:57:37;;;;;;;;;;;;;;;26.77;100.00;96439.72;5048727;28;19963;-51
2022/08/01 07:00:08;;;;;;;;;;;;;;;26.58;100.00;96436.47;5048926;28;20355;-48
2022/08/01 07:02:37;;;;;;;;;;;;;;;26.93;100.00;96438.88;5048856;28;20415;-48
2022/08/01 07:05:05;;;;;;;;;;;;;;;26.95;100.00;96444.06;5053287;28;19970;-53
2022/08/01 07:07:33;;;;;;;;;;;;;;;26.61;100.00;96433.28;5049008;28;19963;-51
2022/08/01 07:10:01;;;;;;;;;;;;;;;26.82;100.00;96445.22;5048503;28;19956;-51
2022/08/01 07:12:32;;;;;;;;;;;;;;;26.72;100.00;96436.94;5048067;28;19967;-51
2022/08/01 07:15:00;;;;;;;;;;;;;;;26.44;100.00;96435.13;5049042;28;19963;-52
2022/08/01 07:17:28;;;;;;;;;;;;;;;27.17;100.00;96438.69;5039290;28;19949;-52
2022/08/01 07:19:56;;;;;;;;;;;;;;;27.18;100.00;96432.19;5042146;28;19968;-50
2022/08/01 07:22:24;;;;;;;;;;;;;;;27.32;98.19;96438.88;5041820;28;20015;-49
2022/08/01 07:24:53;;;;;;;;;;;;;;;27.68;100.00;96440.13;5038203;28;20426;-54
2022/08/01 07:27:21;;;;;;;;;;;;;;;27.79;100.00;96435.69;5042717;28;19956;-50
2022/08/01 07:29:54;;;;;;;;;;;;;;;27.73;99.67;96433.13;5042958;28;19967;-47
2022/08/01 07:32:22;;;;;;;;;;;;;;;27.79;98.73;96438.38;5048668;28;19959;-47
2022/08/01 07:34:51;;;;;;;;;;;;;;;27.87;99.97;96427.09;5049218;28;19956;-50
2022/08/01 07:37:19;;;;;;;;;;;;;;;28.02;93.86;96431.84;5048110;28;19956;-50
2022/08/01 07:40:07;;;;;;;;;;;;;;;28.47;89.16;96429.84;5048193;28;19959;-52
2022/08/01 07:42:36;;;;;;;;;;;;;;;28.73;88.32;96438.97;5048213;28;19964;-47
2022/08/01 07:45:05;;;;;;;;;;;;;;;28.63;90.72;96432.41;5048941;28;19971;-46
2022/08/01 07:47:34;;;;;;;;;;;;;;;28.35;86.41;96433.50;5048656;28;19952;-48
2022/08/01 07:50:02;;;;;;;;;;;;;;;27.86;94.16;96438.19;5050777;28;19963;-49
2022/08/01 07:52:31;;;;;;;;;;;;;;;28.01;89.85;96437.53;5051560;28;20387;-50
2022/08/01 07:54:59;;;;;;;;;;;;;;;28.11;85.12;96435.75;5052650;28;19956;-49
2022/08/01 07:57:27;;;;;;;;;;;;;;;28.09;91.04;96434.38;5052752;28;19959;-48
2022/08/01 07:59:56;;;;;;;;;;;;;;;27.59;100.00;96436.22;5059132;28;20206;-51
2022/08/01 08:02:25;;;;;;;;;;;;;;;27.76;100.00;96438.06;5051530;28;19952;-53
2022/08/01 08:04:53;;;;;;;;;;;;;;;27.95;88.05;96436.66;5051223;28;20398;-52
2022/08/01 08:07:22;;;;;;;;;;;;;;;28.38;81.21;96434.88;5049219;28;19959;-53
2022/08/01 08:09:50;;;;;;;;;;;;;;;28.52;97.19;96438.81;5051779;28;19960;-56
2022/08/01 08:12:18;;;;;;;;;;;;;;;28.17;90.07;96433.88;5049826;28;20319;-53
2022/08/01 08:14:58;;;;;;;;;;;;;;;28.28;94.37;96437.50;5041096;28;19968;-55
2022/08/01 08:17:27;;;;;;;;;;;;;;;29.01;88.70;96426.97;5033839;28;19963;-58
2022/08/01 08:20:02;;;;;;;;;;;;;;;28.53;89.40;96435.06;5047246;28;19979;-50
2022/08/01 08:22:33;;;;;;;;;;;;;;;28.76;80.31;96428.41;5048577;28;19959;-55
2022/08/01 08:25:02;;;;;;;;;;;;;;;28.88;89.72;96428.25;5051262;28;19960;-56
2022/08/01 08:27:30;;;;;;;;;;;;;;;28.96;84.59;96425.00;5051563;28;19973;-52
2022/08/01 08:29:58;;;;;;;;;;;;;;;29.23;86.02;96424.13;5037620;28;19964;-52
2022/08/01 08:32:28;;;;;;;;;;;;;;;29.10;81.89;96422.69;5050687;28;20422;-48
2022/08/01 08:34:56;;;;;;;;;;;;;;;29.15;77.24;96430.03;5051627;28;19944;-57
2022/08/01 08:37:24;;;;;;;;;;;;;;;29.12;90.00;96419.72;5051611;28;19956;-53
2022/08/01 08:39:58;;;;;;;;;;;;;;;29.03;81.23;96424.81;5050932;28;19976;-54
2022/08/01 08:42:26;;;;;;;;;;;;;;;29.02;84.06;96432.16;5047462;28;19967;-53
2022/08/01 08:44:55;;;;;;;;;;;;;;;29.24;76.12;96414.88;5047042;28;19968;-53
2022/08/01 08:47:23;;;;;;;;;;;;;;;29.04;78.82;96426.44;5039884;28;19975;-49
2022/08/01 08:49:54;;;;;;;;;;;;;;;29.55;74.08;96408.47;5047823;28;19971;-48
2022/08/01 08:52:22;;;;;;;;;;;;;;;28.98;81.96;96420.16;5050199;28;19971;-52
2022/08/01 08:54:51;;;;;;;;;;;;;;;28.59;81.82;96414.19;5051201;28;19964;-47
2022/08/01 08:57:19;;;;;;;;;;;;;;;29.32;77.35;96415.19;5051068;28;19964;-56
2022/08/01 08:59:48;;;;;;;;;;;;;;;29.45;79.68;96421.22;5050085;28;19967;-54
2022/08/01 09:02:16;;;;;;;;;;;;;;;29.81;76.12;96414.03;5045470;28;19959;-50
2022/08/01 09:04:44;;;;;;;;;;;;;;;29.28;73.03;96413.25;5050619;28;20311;-56
2022/08/01 09:07:14;;;;;;;;;;;;;;;28.91;83.45;96422.28;5050875;28;19971;-50
2022/08/01 09:09:42;;;;;;;;;;;;;;;29.29;76.88;96423.06;5045079;28;19952;-52
2022/08/01 09:12:11;;;;;;;;;;;;;;;30.03;70.88;96411.88;5046024;28;19963;-47
2022/08/01 09:14:45;;;;;;;;;;;;;;;29.47;70.92;96419.06;5050028;28;19971;-54
2022/08/01 09:17:13;;;;;;;;;;;;;;;29.49;69.59;96416.88;5046837;28;20334;-57
2022/08/01 09:19:41;;;;;;;;;;;;;;;29.27;70.88;96423.31;5043663;28;19964;-46
2022/08/01 09:22:10;;;;;;;;;;;;;;;29.93;59.25;96416.50;5050534;28;20283;-48
2022/08/01 09:24:40;;;;;;;;;;;;;;;30.00;66.89;96406.97;5050962;28;19948;-52
2022/08/01 09:27:18;;;;;;;;;;;;;;;29.83;66.74;96413.75;5050761;28;19948;-49
2022/08/01 09:29:49;;;;;;;;;;;;;;;29.46;72.00;96420.97;5039450;28;19971;-50
2022/08/01 09:32:29;;;;;;;;;;;;;;;30.16;63.07;96417.88;5050080;28;19956;-53
2022/08/01 09:35:17;;;;;;;;;;;;;;;30.14;67.54;96417.34;5050904;28;19955;-48
2022/08/01 09:37:46;;;;;;;;;;;;;;;30.40;62.35;96416.31;5050531;28;19956;-48
2022/08/01 09:40:16;;;;;;;;;;;;;;;30.37;62.58;96422.28;5049278;28;20387;-51
2022/08/01 09:42:48;;;;;;;;;;;;;;;30.57;59.69;96407.03;5043195;28;19968;-50
2022/08/01 09:45:31;;;;;;;;;;;;;;;30.33;62.17;96407.59;5050262;28;19948;-50
2022/08/01 09:48:11;;;;;;;;;;;;;;;30.54;61.48;96407.59;5050393;28;19952;-50
2022/08/01 09:50:40;;;;;;;;;;;;;;;30.59;58.43;96413.00;5040658;28;19964;-48
2022/08/01 09:53:09;;;;;;;;;;;;;;;31.06;60.49;96412.69;5049490;28;19971;-49
2022/08/01 09:55:55;;;;;;;;;;;;;;;31.02;56.57;96408.91;5049946;28;19951;-50
2022/08/01 09:58:23;;;;;;;;;;;;;;;30.87;57.27;96414.41;5043768;28;19960;-53
2022/08/01 10:00:58;;;;;;;;;;;;;;;30.14;60.18;96399.09;5049685;28;19971;-47
2022/08/01 10:03:29;;;;;;;;;;;;;;;30.16;60.18;96404.28;5048974;28;19960;-50
2022/08/01 10:05:58;;;;;;;;;;;;;;;30.66;61.90;96400.78;5047474;28;19952;-50
2022/08/01 10:08:27;;;;;;;;;;;;;;;29.91;59.16;96407.81;5030274;28;19964;-47
2022/08/01 10:11:10;;;;;;;;;;;;;;;31.19;52.64;96395.78;5033821;28;19960;-50
2022/08/01 10:13:39;;;;;;;;;;;;;;;30.45;58.48;96402.69;5044840;28;19968;-46
2022/08/01 10:16:07;;;;;;;;;;;;;;;30.72;55.19;96398.84;5047717;28;19943;-46
2022/08/01 10:18:35;;;;;;;;;;;;;;;31.86;53.91;96388.09;5049431;28;19967;-46
2022/08/01 10:21:05;;;;;;;;;;;;;;;31.95;53.19;96393.00;5049343;28;19972;-51
2022/08/01 10:23:38;;;;;;;;;;;;;;;31.43;51.91;96387.81;5048986;28;19960;-48
2022/08/01 10:26:08;;;;;;;;;;;;;;;30.78;52.96;96388.81;5049798;28;19948;-49
2022/08/01 10:28:38;;;;;;;;;;;;;;;31.88;50.39;96393.31;5049773;28;20358;-52
2022/08/01 10:31:07;;;;;;;;;;;;;;;32.26;50.01;96388.94;5052978;28;19956;-48
2022/08/01 10:33:41;;;;;;;;;;;;;;;31.19;50.26;96386.78;5042693;28;19948;-53
2022/08/01 10:36:21;;;;;;;;;;;;;;;31.71;49.87;96387.41;5049801;28;20023;-47
2022/08/01 10:38:49;;;;;;;;;;;;;;;31.45;49.95;96379.34;5048624;28;20394;-48
2022/08/01 10:41:18;;;;;;;;;;;;;;;32.50;46.34;96377.31;5049413;28;19963;-50
2022/08/01 10:43:48;;;;;;;;;;;;;;;31.77;51.61;96370.72;5032368;28;19960;-48
2022/08/01 10:46:16;;;;;;;;;;;;;;;32.43;50.62;96371.38;5045128;28;20023;-52
2022/08/01 10:48:47;;;;;;;;;;;;;;;31.89;51.01;96373.13;5049293;28;19948;-50
2022/08/01 10:51:16;;;;;;;;;;;;;;;31.75;51.66;96366.63;5048960;28;19964;-50
2022/08/01 10:53:49;;;;;;;;;;;;;;;31.36;50.69;96362.75;5045909;28;19971;-54
2022/08/01 10:56:21;;;;;;;;;;;;;;;31.52;49.93;96366.25;5047392;28;19992;-45
2022/08/01 10:59:01;;;;;;;;;;;;;;;32.04;48.77;96362.13;5048872;28;20054;-55
2022/08/01 11:01:38;;;;;;;;;;;;;;;31.72;50.33;96365.28;5048367;28;20846;-49
2022/08/01 11:04:13;;;;;;;;;;;;;;;31.52;51.04;96354.50;5048896;28;19964;-55
2022/08/01 11:06:50;;;;;;;;;;;;;;;31.66;53.19;96358.25;5045790;28;20370;-54
2022/08/01 11:09:23;;;;;;;;;;;;;;;30.89;48.48;96368.63;5043800;28;20419;-52
2022/08/01 11:12:08;;;;;;;;;;;;;;;31.13;51.62;96347.84;5047701;28;19963;-53
2022/08/01 11:15:00;;;;;;;;;;;;;;;31.06;51.54;96358.22;5042498;28;20405;-52
2022/08/01 11:17:35;;;;;;;;;;;;;;;31.66;49.20;96348.16;5045432;28;20335;-48
2022/08/01 11:20:09;;;;;;;;;;;;;;;31.06;46.86;96351.97;5048513;28;19964;-50
2022/08/01 11:22:55;;;;;;;;;;;;;;;31.36;46.25;96337.44;5048854;28;19966;-51
2022/08/01 11:25:24;;;;;;;;;;;;;;;30.55;49.18;96336.53;5052113;28;19963;-54
2022/08/01 11:28:23;;;;;;;;;;;;;;;31.47;48.51;96338.19;5052622;28;19971;-52
2022/08/01 11:31:16;;;;;;;;;;;;;;;31.47;46.44;96332.72;5052494;28;19959;-48
2022/08/01 11:33:50;;;;;;;;;;;;;;;31.68;48.89;96337.78;5051338;28;19971;-53
2022/08/01 11:36:22;;;;;;;;;;;;;;;30.73;47.08;96338.69;5048746;28;19948;-55
2022/08/01 11:39:14;;;;;;;;;;;;;;;31.22;46.90;96320.84;5052457;28;19950;-52
2022/08/01 11:41:43;;;;;;;;;;;;;;;31.91;45.88;96330.84;5037193;28;19967;-53
2022/08/01 11:44:13;;;;;;;;;;;;;;;31.38;45.41;96330.59;5052305;28;19975;-49
2022/08/01 11:46:51;;;;;;;;;;;;;;;32.01;42.25;96331.88;5044712;28;19966;-47
2022/08/01 11:49:25;;;;;;;;;;;;;;;31.83;44.00;96327.84;5045130;28;19998;-48
2022/08/01 11:52:00;;;;;;;;;;;;;;;32.34;44.23;96330.19;5051971;28;19956;-49
2022/08/01 11:54:28;;;;;;;;;;;;;;;32.27;45.22;96330.53;5052495;28;19955;-50
2022/08/01 11:57:04;;;;;;;;;;;;;;;31.77;42.87;96323.56;5052388;28;19964;-48
2022/08/01 11:59:39;;;;;;;;;;;;;;;31.34;45.05;96321.34;5044232;28;19947;-50
2022/08/01 12:02:18;;;;;;;;;;;;;;;31.98;44.20;96326.97;5049369;28;19964;-48
2022/08/01 12:04:59;;;;;;;;;;;;;;;32.45;42.27;96323.59;5048466;28;19949;-54
2022/08/01 12:07:29;;;;;;;;;;;;;;;32.29;42.33;96333.00;5050442;28;19955;-49
2022/08/01 12:09:58;;;;;;;;;;;;;;;32.50;40.48;96330.91;5051283;28;19952;-52
2022/08/01 12:12:26;;;;;;;;;;;;;;;32.66;40.53;96316.00;5051426;28;19951;-51
2022/08/01 12:14:55;;;;;;;;;;;;;;;33.57;39.12;96310.53;5050771;28;20426;-56
2022/08/01 12:17:34;;;;;;;;;;;;;;;33.24;39.09;96317.78;5051488;28;19955;-49
2022/08/01 12:20:04;;;;;;;;;;;;;;;33.37;37.69;96308.88;5048831;28;20390;-49
2022/08/01 12:22:33;;;;;;;;;;;;;;;32.72;37.76;96303.09;5051679;28;19959;-54
2022/08/01 12:25:08;;;;;;;;;;;;;;;32.61;39.60;96308.66;5051893;28;19975;-51
2022/08/01 12:27:36;;;;;;;;;;;;;;;32.41;39.34;96297.09;5052120;28;20353;-46
2022/08/01 12:30:06;;;;;;;;;;;;;;;32.26;38.97;96307.06;5050970;28;19979;-53
2022/08/01 12:32:35;;;;;;;;;;;;;;;32.36;40.11;96309.72;5050925;28;20533;-52
2022/08/01 12:35:05;;;;;;;;;;;;;;;32.11;40.79;96316.22;5051490;28;19964;-55
2022/08/01 12:37:35;;;;;;;;;;;;;;;32.16;40.57;96312.63;5051709;28;19960;-49
2022/08/01 12:40:10;;;;;;;;;;;;;;;32.20;40.42;96310.94;5051577;28;19948;-57
2022/08/01 12:42:39;;;;;;;;;;;;;;;32.58;40.00;96316.63;5051454;28;19998;-57
2022/08/01 12:45:08;;;;;;;;;;;;;;;32.10;39.97;96325.50;5051317;28;19966;-49
2022/08/01 12:47:36;;;;;;;;;;;;;;;31.66;40.81;96317.34;5051321;28;20391;-47
2022/08/01 12:50:07;;;;;;;;;;;;;;;31.86;40.82;96316.38;5050745;28;19960;-53
2022/08/01 12:52:35;;;;;;;;;;;;;;;32.13;40.89;96308.53;5048167;28;19986;-51
2022/08/01 12:55:04;;;;;;;;;;;;;;;32.47;40.43;96315.09;5040775;28;19963;-52
2022/08/01 12:57:37;;;;;;;;;;;;;;;32.44;41.11;96311.03;5050848;28;20013;-49